createdAt,value
2022-12-09T00:00:50.181Z,32.65
2022-12-09T00:02:51.682Z,34.17
2022-12-09T00:04:53.200Z,31.65
2022-12-09T00:06:54.792Z,29.48
2022-12-09T00:08:57.306Z,31.70
2022-12-09T00:10:58.892Z,27.35
2022-12-09T00:13:00.230Z,30.73
2022-12-09T00:15:01.605Z,28.35
2022-12-09T00:17:03.328Z,27.40
2022-12-09T00:19:04.900Z,28.40
2022-12-09T00:21:21.356Z,28.65
2022-12-09T00:23:22.853Z,25.75
2022-12-09T00:25:24.386Z,26.05
2022-12-09T00:27:25.934Z,25.63
2022-12-09T00:29:27.221Z,27.80
2022-12-09T00:31:30.863Z,25.13
2022-12-09T00:33:33.002Z,25.63
2022-12-09T00:35:34.388Z,24.33
2022-12-09T00:37:35.778Z,22.95
2022-12-09T00:39:37.425Z,21.58
2022-12-09T00:41:38.933Z,22.63
2022-12-09T00:43:40.805Z,22.48
2022-12-09T00:45:42.417Z,24.45
2022-12-09T00:47:43.909Z,28.52
2022-12-09T00:49:45.377Z,26.42
2022-12-09T00:51:46.909Z,30.17
2022-12-09T00:53:49.087Z,32.15
2022-12-09T00:55:50.661Z,33.72
2022-12-09T00:57:52.148Z,35.08
2022-12-09T00:59:53.593Z,33.53
2022-12-09T01:01:55.155Z,37.75
2022-12-09T01:03:57.018Z,37.45
2022-12-09T01:05:58.550Z,44.22
2022-12-09T01:07:59.914Z,43.08
2022-12-09T01:10:01.287Z,41.72
2022-12-09T01:12:03.906Z,40.40
2022-12-09T01:14:05.249Z,40.85
2022-12-09T01:16:13.903Z,40.35
2022-12-09T01:18:15.272Z,36.53
2022-12-09T01:20:16.806Z,40.67
2022-12-09T01:22:18.116Z,43.22
2022-12-09T01:24:19.855Z,44.50
2022-12-09T01:26:21.552Z,45.40
2022-12-09T01:28:22.956Z,42.78
2022-12-09T01:30:24.303Z,42.63
2022-12-09T01:32:25.918Z,45.67
2022-12-09T01:34:27.450Z,47.55
2022-12-09T01:36:29.814Z,45.30
2022-12-09T01:38:31.507Z,45.75
2022-12-09T01:40:33.220Z,45.65
2022-12-09T01:42:34.802Z,43.17
2022-12-09T01:44:36.340Z,47.92
2022-12-09T01:46:38.336Z,49.22
2022-12-09T01:48:44.791Z,43.88
2022-12-09T01:50:48.205Z,45.53
2022-12-09T01:52:50.178Z,42.72
2022-12-09T01:54:52.334Z,42.58
2022-12-09T01:56:54.058Z,43.30
2022-12-09T01:58:57.733Z,42.22
2022-12-09T02:00:59.085Z,43.08
2022-12-09T02:03:01.593Z,45.72
2022-12-09T02:05:03.854Z,41.70
2022-12-09T02:07:08.192Z,37.80
2022-12-09T02:09:10.312Z,38.47
2022-12-09T02:11:23.612Z,36.70
2022-12-09T02:13:25.134Z,36.65
2022-12-09T02:15:29.794Z,32.80
2022-12-09T02:17:31.437Z,32.35
2022-12-09T02:19:44.612Z,33.17
2022-12-09T02:21:54.375Z,31.63
2022-12-09T02:24:06.984Z,30.13
2022-12-09T02:26:28.916Z,30.55
2022-12-09T02:28:48.822Z,29.08
2022-12-09T02:30:50.356Z,30.05
2022-12-09T02:32:51.801Z,28.83
2022-12-09T02:34:55.368Z,28.65
2022-12-09T02:37:15.656Z,27.30
2022-12-09T02:39:17.561Z,27.52
2022-12-09T02:41:21.310Z,27.00
2022-12-09T02:43:25.437Z,25.88
2022-12-09T02:45:28.566Z,27.05
2022-12-09T02:47:31.476Z,25.90
2022-12-09T02:49:33.835Z,22.38
2022-12-09T02:51:36.631Z,25.58
2022-12-09T02:53:38.905Z,23.63
2022-12-09T02:55:42.193Z,25.13
2022-12-09T02:57:43.539Z,25.00
2022-12-09T02:59:44.880Z,24.15
2022-12-09T03:01:51.715Z,24.50
2022-12-09T03:03:55.002Z,26.08
2022-12-09T03:05:57.009Z,26.58
2022-12-09T03:08:04.131Z,24.27
2022-12-09T03:10:27.057Z,26.05
2022-12-09T03:12:30.483Z,27.02
2022-12-09T03:14:36.159Z,27.20
2022-12-09T03:16:37.627Z,28.55
2022-12-09T03:18:41.272Z,27.60
2022-12-09T03:20:43.032Z,27.77
2022-12-09T03:22:46.364Z,26.92
2022-12-09T03:25:03.539Z,28.50
2022-12-09T03:27:07.689Z,24.70
2022-12-09T03:29:12.668Z,25.50
2022-12-09T03:31:16.404Z,29.45
2022-12-09T03:33:19.620Z,25.02
2022-12-09T03:35:23.308Z,25.48
2022-12-09T03:37:26.262Z,25.33
2022-12-09T03:39:30.737Z,27.70
2022-12-09T03:41:33.492Z,28.45
2022-12-09T03:43:37.224Z,27.00
2022-12-09T03:45:39.450Z,25.17
2022-12-09T03:47:41.048Z,26.83
2022-12-09T03:49:42.552Z,25.58
2022-12-09T03:51:49.759Z,24.45
2022-12-09T03:54:02.635Z,26.35
2022-12-09T03:56:13.197Z,26.88
2022-12-09T03:58:15.893Z,26.00
2022-12-09T04:00:18.319Z,23.05
2022-12-09T04:02:20.372Z,29.80
2022-12-09T04:04:22.667Z,24.25
2022-12-09T04:06:24.717Z,25.52
2022-12-09T04:08:26.182Z,24.40
2022-12-09T04:10:27.709Z,25.17
2022-12-09T04:12:29.160Z,26.08
2022-12-09T04:14:30.581Z,25.55
2022-12-09T04:16:32.156Z,27.42
2022-12-09T04:18:34.034Z,26.70
2022-12-09T04:20:35.815Z,27.30
2022-12-09T04:22:37.140Z,24.55
2022-12-09T04:24:38.516Z,27.63
2022-12-09T04:26:40.106Z,29.13
2022-12-09T04:28:41.437Z,27.58
2022-12-09T04:30:46.768Z,28.80
2022-12-09T04:32:48.530Z,26.67
2022-12-09T04:34:50.002Z,28.83
2022-12-09T04:36:51.494Z,27.23
2022-12-09T04:38:52.941Z,27.83
2022-12-09T04:40:54.240Z,29.17
2022-12-09T04:42:55.896Z,27.67
2022-12-09T04:44:57.334Z,29.42
2022-12-09T04:46:58.736Z,30.02
2022-12-09T04:49:00.589Z,31.23
2022-12-09T04:51:02.098Z,30.35
2022-12-09T04:53:03.803Z,30.23
2022-12-09T04:55:06.145Z,31.85
2022-12-09T04:57:08.509Z,31.67
2022-12-09T04:59:09.825Z,35.35
2022-12-09T05:01:12.964Z,31.30
2022-12-09T05:03:14.874Z,31.60
2022-12-09T05:05:16.741Z,31.20
2022-12-09T05:07:18.705Z,31.63
2022-12-09T05:09:20.316Z,32.65
2022-12-09T05:11:23.857Z,31.15
2022-12-09T05:13:28.040Z,32.20
2022-12-09T05:15:29.869Z,32.13
2022-12-09T05:17:31.371Z,30.00
2022-12-09T05:19:32.827Z,29.58
2022-12-09T05:21:34.156Z,27.92
2022-12-09T05:23:36.274Z,28.98
2022-12-09T05:25:37.908Z,29.15
2022-12-09T05:27:40.045Z,28.17
2022-12-09T05:29:41.873Z,26.25
2022-12-09T05:31:43.364Z,27.55
2022-12-09T05:33:45.766Z,27.08
2022-12-09T05:35:52.788Z,28.65
2022-12-09T05:37:54.891Z,28.23
2022-12-09T05:39:56.439Z,30.35
2022-12-09T05:41:57.807Z,28.02
2022-12-09T05:43:59.524Z,27.30
2022-12-09T05:46:01.741Z,29.95
2022-12-09T05:48:03.763Z,27.40
2022-12-09T05:50:08.188Z,27.80
2022-12-09T05:52:14.379Z,27.00
2022-12-09T05:54:16.380Z,29.17
2022-12-09T05:56:19.093Z,28.02
2022-12-09T05:58:21.143Z,28.08
2022-12-09T06:00:23.243Z,28.35
2022-12-09T06:02:24.877Z,29.77
2022-12-09T06:04:26.532Z,27.30
2022-12-09T06:06:31.294Z,26.10
2022-12-09T06:08:33.344Z,26.70
2022-12-09T06:10:35.711Z,27.52
2022-12-09T06:12:37.754Z,25.48
2022-12-09T06:14:39.393Z,25.77
2022-12-09T06:16:41.378Z,26.52
2022-12-09T06:18:43.045Z,27.15
2022-12-09T06:20:45.489Z,27.58
2022-12-09T06:22:46.924Z,30.30
2022-12-09T06:24:51.114Z,28.85
2022-12-09T06:26:56.930Z,29.50
2022-12-09T06:28:59.764Z,27.70
2022-12-09T06:31:01.687Z,28.63
2022-12-09T06:33:12.975Z,30.77
2022-12-09T06:35:25.471Z,31.75
2022-12-09T06:37:26.891Z,35.70
2022-12-09T06:39:28.559Z,32.38
2022-12-09T06:41:30.444Z,32.50
2022-12-09T06:43:31.823Z,30.83
2022-12-09T06:45:33.243Z,33.63
2022-12-09T06:47:34.859Z,32.33
2022-12-09T06:49:36.943Z,31.13
2022-12-09T06:51:38.689Z,31.38
2022-12-09T06:53:40.305Z,30.75
2022-12-09T06:55:41.689Z,33.17
2022-12-09T06:57:43.192Z,33.13
2022-12-09T06:59:47.501Z,31.58
2022-12-09T07:01:49.165Z,33.50
2022-12-09T07:03:52.702Z,34.55
2022-12-09T07:05:54.964Z,32.67
2022-12-09T07:07:56.900Z,34.13
2022-12-09T07:09:58.789Z,32.22
2022-12-09T07:12:00.519Z,31.50
2022-12-09T07:14:02.280Z,31.75
2022-12-09T07:16:03.870Z,33.35
2022-12-09T07:18:07.091Z,34.20
2022-12-09T07:20:09.408Z,34.38
2022-12-09T07:22:11.469Z,32.75
2022-12-09T07:24:13.355Z,29.08
2022-12-09T07:26:15.048Z,31.63
2022-12-09T07:28:16.822Z,28.77
2022-12-09T07:30:18.875Z,30.02
2022-12-09T07:32:20.278Z,31.15
2022-12-09T07:34:22.118Z,29.27
2022-12-09T07:36:25.270Z,29.33
2022-12-09T07:38:27.032Z,30.13
2022-12-09T07:40:28.746Z,29.73
2022-12-09T07:42:30.282Z,30.45
2022-12-09T07:44:31.787Z,30.63
2022-12-09T07:46:33.420Z,30.92
2022-12-09T07:48:35.254Z,30.33
2022-12-09T07:50:37.063Z,30.48
2022-12-09T07:52:38.535Z,31.65
2022-12-09T07:54:39.906Z,40.25
2022-12-09T07:56:41.531Z,37.15
2022-12-09T07:58:43.931Z,33.33
2022-12-09T08:00:45.360Z,36.05
2022-12-09T08:02:47.147Z,37.58
2022-12-09T08:04:48.656Z,37.67
2022-12-09T08:06:50.381Z,36.38
2022-12-09T08:08:52.216Z,37.22
2022-12-09T08:10:54.682Z,36.80
2022-12-09T08:12:56.713Z,36.88
2022-12-09T08:14:58.467Z,35.17
2022-12-09T08:17:00.277Z,34.40
2022-12-09T08:19:01.827Z,32.90
2022-12-09T08:21:04.686Z,31.15
2022-12-09T08:23:06.297Z,29.70
2022-12-09T08:25:08.476Z,32.22
2022-12-09T08:27:10.553Z,31.92
2022-12-09T08:29:13.280Z,30.77
2022-12-09T08:31:17.691Z,29.80
2022-12-09T08:33:19.605Z,29.55
2022-12-09T08:35:21.086Z,28.80
2022-12-09T08:37:22.908Z,28.55
2022-12-09T08:39:24.516Z,28.80
2022-12-09T08:41:36.013Z,27.27
2022-12-09T08:43:38.201Z,30.83
2022-12-09T08:45:40.710Z,27.90
2022-12-09T08:47:42.835Z,30.33
2022-12-09T08:49:44.505Z,27.40
2022-12-09T08:51:46.830Z,31.75
2022-12-09T08:53:48.242Z,32.08
2022-12-09T08:55:49.736Z,30.40
2022-12-09T08:57:51.366Z,29.08
2022-12-09T08:59:53.192Z,30.27
2022-12-09T09:01:54.938Z,28.38
2022-12-09T09:03:57.488Z,28.98
2022-12-09T09:06:09.707Z,31.17
2022-12-09T09:08:12.610Z,28.88
2022-12-09T09:10:14.938Z,31.90
2022-12-09T09:12:16.822Z,31.58
2022-12-09T09:14:18.392Z,33.53
2022-12-09T09:16:21.778Z,30.05
2022-12-09T09:18:23.571Z,31.23
2022-12-09T09:20:25.109Z,31.65
2022-12-09T09:22:27.437Z,31.15
2022-12-09T09:24:28.872Z,32.53
2022-12-09T09:26:30.411Z,32.40
2022-12-09T09:28:32.646Z,31.80
2022-12-09T09:30:34.750Z,34.30
2022-12-09T09:32:36.481Z,33.70
2022-12-09T09:34:38.021Z,35.65
2022-12-09T09:36:40.445Z,36.38
2022-12-09T09:38:42.553Z,32.60
2022-12-09T09:40:44.454Z,34.55
2022-12-09T09:42:49.181Z,39.63
2022-12-09T09:44:52.320Z,44.88
2022-12-09T09:46:54.657Z,36.92
2022-12-09T09:48:57.415Z,35.35
2022-12-09T09:51:01.859Z,37.63
2022-12-09T09:53:21.479Z,36.70
2022-12-09T09:55:43.280Z,38.55
2022-12-09T09:57:52.488Z,38.42
2022-12-09T10:00:04.998Z,37.05
2022-12-09T10:02:18.292Z,37.15
2022-12-09T10:04:28.780Z,37.28
2022-12-09T10:06:37.268Z,34.22
2022-12-09T10:08:59.176Z,33.60
2022-12-09T10:11:10.891Z,34.25
2022-12-09T10:13:17.998Z,34.28
2022-12-09T10:15:23.297Z,36.80
2022-12-09T10:17:25.057Z,35.22
2022-12-09T10:19:26.898Z,36.67
2022-12-09T10:21:29.473Z,39.72
2022-12-09T10:23:32.154Z,33.38
2022-12-09T10:25:35.604Z,35.13
2022-12-09T10:27:45.924Z,35.35
2022-12-09T10:30:03.043Z,37.10
2022-12-09T10:32:05.297Z,37.97
2022-12-09T10:34:09.026Z,37.42
2022-12-09T10:36:22.766Z,33.05
2022-12-09T10:38:24.863Z,33.92
2022-12-09T10:40:35.706Z,33.58
2022-12-09T10:43:13.806Z,36.97
2022-12-09T10:45:15.714Z,33.72
2022-12-09T10:47:28.351Z,34.67
2022-12-09T10:49:31.284Z,38.90
2022-12-09T10:51:35.619Z,41.83
2022-12-09T10:53:37.623Z,35.65
2022-12-09T10:55:41.294Z,37.60
2022-12-09T10:57:42.765Z,36.90
2022-12-09T11:00:02.066Z,37.40
2022-12-09T11:02:10.384Z,35.63
2022-12-09T11:04:13.331Z,35.95
2022-12-09T11:06:24.572Z,35.08
2022-12-09T11:08:26.311Z,34.97
2022-12-09T11:10:29.641Z,36.90
2022-12-09T11:12:40.215Z,35.42
2022-12-09T11:14:51.106Z,35.10
2022-12-09T11:16:53.826Z,37.30
2022-12-09T11:18:55.565Z,35.03
2022-12-09T11:20:59.071Z,35.17
2022-12-09T11:23:07.322Z,36.67
2022-12-09T11:25:12.605Z,35.83
2022-12-09T11:27:33.929Z,36.58
2022-12-09T11:31:39.385Z,41.42
2022-12-09T11:33:48.209Z,35.92
2022-12-09T11:35:50.116Z,40.17
2022-12-09T11:37:51.663Z,36.78
2022-12-09T11:39:53.125Z,35.22
2022-12-09T11:42:16.996Z,35.90
2022-12-09T11:44:26.692Z,34.88
2022-12-09T11:46:32.420Z,32.45
2022-12-09T11:48:40.102Z,31.52
2022-12-09T11:52:46.745Z,32.97
2022-12-09T11:54:53.169Z,34.10
2022-12-09T11:56:56.000Z,36.17
2022-12-09T11:58:57.268Z,32.42
2022-12-09T12:01:01.443Z,35.95
2022-12-09T12:03:20.731Z,37.95
2022-12-09T12:05:23.865Z,40.78
2022-12-09T12:07:30.461Z,37.83
2022-12-09T12:09:39.405Z,40.72
2022-12-09T12:11:44.966Z,42.72
2022-12-09T12:13:47.681Z,45.22
2022-12-09T12:15:58.024Z,44.72
2022-12-09T12:18:02.333Z,42.55
2022-12-09T12:20:04.759Z,42.97
2022-12-09T12:22:24.991Z,43.22
2022-12-09T12:24:29.290Z,42.97
2022-12-09T12:26:37.672Z,37.83
2022-12-09T12:29:02.506Z,36.40
2022-12-09T12:31:19.380Z,34.75
2022-12-09T12:35:54.654Z,30.58
2022-12-09T12:38:12.151Z,31.70
2022-12-09T12:40:31.870Z,29.13
2022-12-09T12:43:05.538Z,29.95
2022-12-09T12:45:34.825Z,28.88
2022-12-09T12:47:48.708Z,26.23
2022-12-09T12:49:55.751Z,26.75
2022-12-09T12:52:05.851Z,27.73
2022-12-09T12:54:19.130Z,29.90
2022-12-09T12:56:25.389Z,28.63
2022-12-09T12:58:35.719Z,27.52
2022-12-09T13:00:47.134Z,27.17
2022-12-09T13:03:00.864Z,25.90
2022-12-09T13:05:11.878Z,26.92
2022-12-09T13:07:13.223Z,27.90
2022-12-09T13:09:17.773Z,30.27
2022-12-09T13:11:25.168Z,30.25
2022-12-09T13:13:31.075Z,27.90
2022-12-09T13:15:32.663Z,25.75
2022-12-09T13:17:33.950Z,27.13
2022-12-09T13:19:43.424Z,27.17
2022-12-09T13:21:45.355Z,26.65
2022-12-09T13:23:46.665Z,24.55
2022-12-09T13:25:57.479Z,25.15
2022-12-09T13:28:10.877Z,30.77
2022-12-09T13:30:15.885Z,28.98
2022-12-09T13:32:29.697Z,33.85
2022-12-09T13:34:52.655Z,29.33
2022-12-09T13:36:54.021Z,25.83
2022-12-09T13:38:55.529Z,28.08
2022-12-09T13:40:56.823Z,26.27
2022-12-09T13:43:04.357Z,28.35
2022-12-09T13:45:06.912Z,28.08
2022-12-09T13:47:34.535Z,32.90
2022-12-09T13:49:36.185Z,31.88
2022-12-09T13:51:48.939Z,30.73
2022-12-09T13:53:59.283Z,32.28
2022-12-09T13:56:02.518Z,29.17
2022-12-09T13:58:22.889Z,31.10
2022-12-09T14:00:24.274Z,28.50
2022-12-09T14:02:25.672Z,30.45
2022-12-09T14:04:31.436Z,29.85
2022-12-09T14:06:48.764Z,27.80
2022-12-09T14:08:52.895Z,27.60
2022-12-09T14:10:54.336Z,29.27
2022-12-09T14:12:55.679Z,27.35
2022-12-09T14:14:58.531Z,28.23
2022-12-09T14:17:04.115Z,29.17
2022-12-09T14:19:23.538Z,30.08
2022-12-09T14:21:29.121Z,25.98
2022-12-09T14:23:30.433Z,24.08
2022-12-09T14:25:34.655Z,25.50
2022-12-09T14:27:36.030Z,26.52
2022-12-09T14:29:51.008Z,24.48
2022-12-09T14:31:55.339Z,23.10
2022-12-09T14:33:56.701Z,26.10
2022-12-09T14:36:06.333Z,24.30
2022-12-09T14:39:07.910Z,24.02
2022-12-09T14:41:13.470Z,26.02
2022-12-09T14:43:23.540Z,23.58
2022-12-09T14:45:29.304Z,22.63
2022-12-09T14:47:32.380Z,25.70
2022-12-09T14:49:37.799Z,23.88
2022-12-09T14:51:50.194Z,23.50
2022-12-09T14:54:00.072Z,23.98
2022-12-09T14:56:01.601Z,23.80
2022-12-09T14:58:03.621Z,22.45
2022-12-09T15:00:06.231Z,24.73
2022-12-09T15:02:07.856Z,25.45
2022-12-09T15:04:20.222Z,23.60
2022-12-09T15:06:21.621Z,27.40
2022-12-09T15:08:26.961Z,25.40
2022-12-09T15:10:34.215Z,26.63
2022-12-09T15:12:35.521Z,27.80
2022-12-09T15:14:37.576Z,38.97
2022-12-09T15:16:46.277Z,27.42
2022-12-09T15:18:51.328Z,25.23
2022-12-09T15:20:56.808Z,26.17
2022-12-09T15:23:21.316Z,26.67
2022-12-09T15:25:23.908Z,29.23
2022-12-09T15:27:25.864Z,29.10
2022-12-09T15:29:29.730Z,26.70
2022-12-09T15:31:32.360Z,26.15
2022-12-09T15:33:44.276Z,27.75
2022-12-09T15:36:03.998Z,30.35
2022-12-09T15:38:06.581Z,27.85
2022-12-09T15:40:11.233Z,37.47
2022-12-09T15:42:15.392Z,36.33
2022-12-09T15:44:18.545Z,36.60
2022-12-09T15:46:20.192Z,40.67
2022-12-09T15:48:23.942Z,40.80
2022-12-09T15:50:31.918Z,39.95
2022-12-09T15:52:40.073Z,41.92
2022-12-09T15:54:43.308Z,40.35
2022-12-09T15:56:47.540Z,41.45
2022-12-09T15:58:51.025Z,36.80
2022-12-09T16:00:53.612Z,35.58
2022-12-09T16:02:55.975Z,36.33
2022-12-09T16:05:00.525Z,36.65
2022-12-09T16:07:08.694Z,34.83
2022-12-09T16:09:14.171Z,33.92
2022-12-09T16:11:33.984Z,35.63
2022-12-09T16:13:35.516Z,35.47
2022-12-09T16:15:41.650Z,30.58
2022-12-09T16:17:53.836Z,31.00
2022-12-09T16:19:55.309Z,29.30
2022-12-09T16:22:16.913Z,29.45
2022-12-09T16:24:18.272Z,29.35
2022-12-09T16:26:28.659Z,27.65
2022-12-09T16:28:30.610Z,30.90
2022-12-09T16:30:33.144Z,32.67
2022-12-09T16:32:44.660Z,29.90
2022-12-09T16:34:46.932Z,31.23
2022-12-09T16:36:55.426Z,31.55
2022-12-09T16:39:08.864Z,30.02
2022-12-09T16:41:11.768Z,32.55
2022-12-09T16:43:16.017Z,31.65
2022-12-09T16:45:21.595Z,31.52
2022-12-09T16:47:25.128Z,30.95
2022-12-09T16:49:26.441Z,29.23
2022-12-09T16:51:27.832Z,33.80
2022-12-09T16:53:34.080Z,32.70
2022-12-09T16:55:35.708Z,29.98
2022-12-09T16:57:37.034Z,32.00
2022-12-09T16:59:38.428Z,31.05
2022-12-09T17:01:41.481Z,29.63
2022-12-09T17:04:01.317Z,31.13
2022-12-09T17:06:02.685Z,33.22
2022-12-09T17:08:04.150Z,31.77
2022-12-09T17:10:05.964Z,33.45
2022-12-09T17:12:07.614Z,33.75
2022-12-09T17:14:08.922Z,35.28
2022-12-09T17:16:10.358Z,33.38
2022-12-09T17:18:11.836Z,31.55
2022-12-09T17:20:13.771Z,32.63
2022-12-09T17:22:16.519Z,29.52
2022-12-09T17:24:17.893Z,32.28
2022-12-09T17:26:20.033Z,35.65
2022-12-09T17:28:23.848Z,37.85
2022-12-09T17:30:28.511Z,36.72
2022-12-09T17:32:29.849Z,37.97
2022-12-09T17:34:31.214Z,40.13
2022-12-09T17:36:32.615Z,37.95
2022-12-09T17:38:34.030Z,38.67
2022-12-09T17:40:35.432Z,39.20
2022-12-09T17:42:39.245Z,40.13
2022-12-09T17:44:40.575Z,37.67
2022-12-09T17:46:41.949Z,39.00
2022-12-09T17:48:43.416Z,37.45
2022-12-09T17:50:44.793Z,38.97
2022-12-09T17:52:46.098Z,36.22
2022-12-09T17:54:47.648Z,33.55
2022-12-09T17:56:49.059Z,34.88
2022-12-09T17:58:58.012Z,36.20
2022-12-09T18:00:59.345Z,32.22
2022-12-09T18:03:00.780Z,39.15
2022-12-09T18:05:02.308Z,35.28
2022-12-09T18:07:03.925Z,36.25
2022-12-09T18:09:06.567Z,37.88
2022-12-09T18:11:09.226Z,35.33
2022-12-09T18:13:10.558Z,36.88
2022-12-09T18:15:12.070Z,37.25
2022-12-09T18:17:13.416Z,36.95
2022-12-09T18:19:16.589Z,38.03
2022-12-09T18:21:21.196Z,36.15
2022-12-09T18:23:22.528Z,35.60
2022-12-09T18:25:23.932Z,33.33
2022-12-09T18:27:25.311Z,31.98
2022-12-09T18:29:26.834Z,37.33
2022-12-09T18:31:28.349Z,31.17
2022-12-09T18:33:29.645Z,36.55
2022-12-09T18:35:30.992Z,31.52
2022-12-09T18:37:32.399Z,33.40
2022-12-09T18:39:33.729Z,31.05
2022-12-09T18:41:35.075Z,32.92
2022-12-09T18:43:37.404Z,34.15
2022-12-09T18:45:38.746Z,32.28
2022-12-09T18:47:44.355Z,33.78
2022-12-09T18:49:45.756Z,33.17
2022-12-09T18:51:48.026Z,31.95
2022-12-09T18:53:49.531Z,32.10
2022-12-09T18:55:50.879Z,30.13
2022-12-09T18:57:52.202Z,31.33
2022-12-09T18:59:53.566Z,33.28
2022-12-09T19:01:54.838Z,30.83
2022-12-09T19:03:57.406Z,31.38
2022-12-09T19:05:58.766Z,30.85
2022-12-09T19:08:00.143Z,31.17
2022-12-09T19:10:01.615Z,32.88
2022-12-09T19:12:37.815Z,29.50
2022-12-09T19:14:25.580Z,28.63
2022-12-09T19:16:27.462Z,35.95
2022-12-09T19:18:28.766Z,30.67
2022-12-09T19:20:32.545Z,36.50
2022-12-09T19:22:33.909Z,33.58
2022-12-09T19:24:39.801Z,30.48
2022-12-09T19:26:44.436Z,33.40
2022-12-09T19:28:55.479Z,32.92
2022-12-09T19:30:56.874Z,32.50
2022-12-09T19:32:58.207Z,30.05
2022-12-09T19:34:59.578Z,35.08
2022-12-09T19:37:01.226Z,35.17
2022-12-09T19:39:03.502Z,32.35
2022-12-09T19:41:05.174Z,33.88
2022-12-09T19:43:07.297Z,36.05
2022-12-09T19:45:13.716Z,33.15
2022-12-09T19:47:15.704Z,32.85
2022-12-09T19:49:18.292Z,32.95
2022-12-09T19:51:20.022Z,33.72
2022-12-09T19:53:21.438Z,34.00
2022-12-09T19:55:22.787Z,36.38
2022-12-09T19:57:24.124Z,35.22
2022-12-09T19:59:26.511Z,33.45
2022-12-09T20:01:28.980Z,37.22
2022-12-09T20:03:30.307Z,39.15
2022-12-09T20:05:31.683Z,37.30
2022-12-09T20:07:33.008Z,40.03
2022-12-09T20:09:35.037Z,39.05
2022-12-09T20:11:36.482Z,39.33
2022-12-09T20:13:37.811Z,36.63
2022-12-09T20:15:39.622Z,36.20
2022-12-09T20:17:40.941Z,36.72
2022-12-09T20:19:42.245Z,35.72
2022-12-09T20:21:43.712Z,32.42
2022-12-09T20:23:45.707Z,32.65
2022-12-09T20:25:47.042Z,33.85
2022-12-09T20:27:48.421Z,41.97
2022-12-09T20:29:49.881Z,36.88
2022-12-09T20:31:51.353Z,33.78
2022-12-09T20:33:54.368Z,34.22
2022-12-09T20:35:55.827Z,33.67
2022-12-09T20:37:57.176Z,35.58
2022-12-09T20:39:58.523Z,31.48
2022-12-09T20:41:59.928Z,32.72
2022-12-09T20:44:01.402Z,33.17
2022-12-09T20:46:04.473Z,34.45
2022-12-09T20:48:06.008Z,31.80
2022-12-09T20:50:07.858Z,33.88
2022-12-09T20:52:09.539Z,32.80
2022-12-09T20:54:11.502Z,33.83
2022-12-09T20:56:13.440Z,34.90
2022-12-09T20:58:14.751Z,31.60
2022-12-09T21:00:16.321Z,34.30
2022-12-09T21:02:17.642Z,34.15
2022-12-09T21:04:19.431Z,35.80
2022-12-09T21:06:21.731Z,33.17
2022-12-09T21:08:28.299Z,35.30
2022-12-09T21:10:32.497Z,33.97
2022-12-09T21:12:33.880Z,33.25
2022-12-09T21:14:36.993Z,33.17
2022-12-09T21:16:39.835Z,37.25
2022-12-09T21:18:41.733Z,38.05
2022-12-09T21:20:44.470Z,34.78
2022-12-09T21:22:59.227Z,36.35
2022-12-09T21:25:07.552Z,36.00
2022-12-09T21:27:08.946Z,35.30
2022-12-09T21:29:10.832Z,36.45
2022-12-09T21:31:13.252Z,35.13
2022-12-09T21:33:14.735Z,35.35
2022-12-09T21:35:16.260Z,39.15
2022-12-09T21:37:18.218Z,35.83
2022-12-09T21:39:20.004Z,37.85
2022-12-09T21:41:22.950Z,35.80
2022-12-09T21:43:24.307Z,35.08
2022-12-09T21:45:26.683Z,38.03
2022-12-09T21:47:28.129Z,35.08
2022-12-09T21:49:30.775Z,38.00
2022-12-09T21:51:33.215Z,36.42
2022-12-09T21:53:34.844Z,35.90
2022-12-09T21:55:36.193Z,39.10
2022-12-09T21:57:37.617Z,36.58
2022-12-09T21:59:41.788Z,36.92
2022-12-09T22:01:43.356Z,40.55
2022-12-09T22:03:45.161Z,41.53
2022-12-09T22:05:46.612Z,41.05
2022-12-09T22:07:49.707Z,40.38
2022-12-09T22:09:52.436Z,37.15
2022-12-09T22:11:55.649Z,39.08
2022-12-09T22:13:58.281Z,35.38
2022-12-09T22:16:04.781Z,36.92
2022-12-09T22:18:06.137Z,37.75
2022-12-09T22:20:48.830Z,37.85
2022-12-09T22:22:30.459Z,37.00
2022-12-09T22:24:31.833Z,35.20
2022-12-09T22:26:33.209Z,37.10
2022-12-09T22:28:35.077Z,35.65
2022-12-09T22:30:36.618Z,36.30
2022-12-09T22:32:41.173Z,37.63
2022-12-09T22:34:44.117Z,36.50
2022-12-09T22:36:46.279Z,38.22
2022-12-09T22:38:48.105Z,37.42
2022-12-09T22:40:49.439Z,39.60
2022-12-09T22:42:50.824Z,40.90
2022-12-09T22:44:52.204Z,40.00
2022-12-09T22:46:53.995Z,40.40
2022-12-09T22:48:56.281Z,38.40
2022-12-09T22:51:01.931Z,39.05
2022-12-09T22:53:03.279Z,39.55
2022-12-09T22:55:05.555Z,41.80
2022-12-09T22:57:06.863Z,43.55
2022-12-09T22:59:08.196Z,45.97
2022-12-09T23:01:10.997Z,46.33
2022-12-09T23:03:12.377Z,42.88
2022-12-09T23:05:13.979Z,39.40
2022-12-09T23:07:15.357Z,41.28
2022-12-09T23:09:18.858Z,39.42
2022-12-09T23:11:21.596Z,44.97
2022-12-09T23:13:22.957Z,43.75
2022-12-09T23:15:24.578Z,40.35
2022-12-09T23:17:25.983Z,40.92
2022-12-09T23:19:27.386Z,38.65
2022-12-09T23:21:33.378Z,41.72
2022-12-09T23:23:34.995Z,45.72
2022-12-09T23:25:36.316Z,38.88
2022-12-09T23:27:37.660Z,43.47
2022-12-09T23:29:38.999Z,42.65
2022-12-09T23:31:40.469Z,43.30
2022-12-09T23:33:42.711Z,45.08
2022-12-09T23:35:44.003Z,43.55
2022-12-09T23:37:45.433Z,42.92
2022-12-09T23:39:48.766Z,42.28
2022-12-09T23:41:50.077Z,42.70
2022-12-09T23:43:52.116Z,40.72
2022-12-09T23:45:53.498Z,44.05
2022-12-09T23:47:55.007Z,42.47
2022-12-09T23:49:56.364Z,42.63
2022-12-09T23:51:57.730Z,40.72
2022-12-09T23:54:00.188Z,40.70
2022-12-09T23:56:01.739Z,40.40
2022-12-09T23:58:03.116Z,41.05
